Time;durP1;ratioP1;P1;durP2;ratioP2;P2;SDS_P1;SDS_P2;PMS_P1;PMS_P2;Temp;Humidity;BMP_temperature;BMP_pressure;BME280_temperature;BME280_humidity;BME280_pressure;Samples;Min_cycle;Max_cycle;Signal;HPM_P1;HPM_P2
2024/01/04 00:00:17;;;;;;;0.40;0.40;;;6.60;99.90;;;;;;5061512;28;20033;-74
2024/01/04 00:02:43;;;;;;;0.50;0.50;;;6.50;99.90;;;;;;5066248;28;20032;-74
2024/01/04 00:05:09;;;;;;;1.58;1.02;;;6.50;99.90;;;;;;5062980;28;20033;-76
2024/01/04 00:07:34;;;;;;;0.50;0.50;;;6.50;99.90;;;;;;5043955;28;20051;-72
2024/01/04 00:10:00;;;;;;;0.50;0.50;;;6.50;99.90;;;;;;5048276;28;20036;-75
2024/01/04 00:12:26;;;;;;;0.50;0.50;;;6.50;99.90;;;;;;5047781;28;20480;-75
2024/01/04 00:14:51;;;;;;;0.50;0.50;;;6.50;99.90;;;;;;5052333;28;20040;-76
2024/01/04 00:17:17;;;;;;;0.50;0.50;;;6.50;99.90;;;;;;5047027;28;20029;-74
2024/01/04 00:19:43;;;;;;;0.45;0.45;;;6.50;99.90;;;;;;5045146;28;20032;-75
2024/01/04 00:22:08;;;;;;;0.50;0.50;;;6.40;99.90;;;;;;5044054;28;20040;-76
2024/01/04 00:24:34;;;;;;;0.50;0.50;;;6.40;99.90;;;;;;5065118;28;20043;-75
2024/01/04 00:27:00;;;;;;;0.50;0.50;;;6.40;99.90;;;;;;5041489;28;20068;-75
2024/01/04 00:29:25;;;;;;;0.60;0.60;;;6.30;99.90;;;;;;5033938;28;20057;-75
2024/01/04 00:31:51;;;;;;;0.45;0.45;;;6.40;99.90;;;;;;5046506;28;20040;-76
2024/01/04 00:34:17;;;;;;;0.75;0.75;;;6.40;99.90;;;;;;5056557;28;20075;-75
2024/01/04 00:36:43;;;;;;;0.40;0.40;;;6.40;99.90;;;;;;5044080;28;20028;-75
2024/01/04 00:39:08;;;;;;;0.60;0.60;;;6.30;99.90;;;;;;5044880;28;20040;-75
2024/01/04 00:41:34;;;;;;;0.50;0.50;;;6.30;99.90;;;;;;5051897;28;20052;-74
2024/01/04 00:44:00;;;;;;;0.50;0.50;;;6.30;99.90;;;;;;5037108;28;20032;-75
2024/01/04 00:46:25;;;;;;;0.40;0.40;;;6.30;99.90;;;;;;5030204;28;20128;-72
2024/01/04 00:48:51;;;;;;;0.60;0.60;;;6.20;99.90;;;;;;5058098;28;20037;-75
2024/01/04 00:51:17;;;;;;;0.50;0.50;;;6.20;99.90;;;;;;5035241;28;20067;-76
2024/01/04 00:53:43;;;;;;;0.60;0.60;;;6.20;99.90;;;;;;5058019;28;20051;-75
2024/01/04 00:56:09;;;;;;;0.52;0.52;;;6.20;99.90;;;;;;5040784;28;20511;-74
2024/01/04 00:58:35;;;;;;;0.50;0.50;;;6.10;99.90;;;;;;5057694;28;20037;-75
2024/01/04 01:01:03;;;;;;;0.63;0.63;;;6.10;99.90;;;;;;5064426;28;20043;-75
2024/01/04 01:03:29;;;;;;;0.43;0.43;;;6.10;99.90;;;;;;5037554;28;20591;-74
2024/01/04 01:05:56;;;;;;;0.60;0.60;;;6.10;99.90;;;;;;5055972;28;20039;-75
2024/01/04 01:08:22;;;;;;;0.40;0.40;;;6.10;99.90;;;;;;5047359;28;20036;-75
2024/01/04 01:10:47;;;;;;;0.50;0.50;;;6.00;99.90;;;;;;5063726;28;20521;-75
2024/01/04 01:13:20;;;;;;;0.47;0.47;;;6.00;99.90;;;;;;5048311;28;20033;-75
2024/01/04 01:15:46;;;;;;;0.50;0.50;;;6.00;99.90;;;;;;5038724;28;20490;-76
2024/01/04 01:18:12;;;;;;;0.63;0.63;;;6.00;99.90;;;;;;5041004;28;20032;-75
2024/01/04 01:20:37;;;;;;;0.65;0.65;;;6.00;99.90;;;;;;5044716;28;20535;-74
2024/01/04 01:23:03;;;;;;;0.75;0.75;;;5.90;99.90;;;;;;5060478;28;20111;-75
2024/01/04 01:25:29;;;;;;;0.60;0.60;;;5.90;99.90;;;;;;5063472;28;20044;-75
2024/01/04 01:27:54;;;;;;;0.90;0.90;;;5.90;99.90;;;;;;5044369;28;20081;-75
2024/01/04 01:30:20;;;;;;;0.40;0.40;;;5.90;99.90;;;;;;5059889;28;20766;-75
2024/01/04 01:32:46;;;;;;;0.40;0.40;;;5.80;99.90;;;;;;5053936;28;20041;-75
2024/01/04 01:35:13;;;;;;;0.50;0.50;;;5.80;99.90;;;;;;5055317;28;20041;-74
2024/01/04 01:37:39;;;;;;;0.50;0.50;;;5.80;99.90;;;;;;5055498;28;20052;-74
2024/01/04 01:40:06;;;;;;;0.50;0.50;;;5.80;99.90;;;;;;5058619;28;20287;-74
2024/01/04 01:42:32;;;;;;;0.40;0.40;;;5.70;99.90;;;;;;5036538;28;20055;-75
2024/01/04 01:44:59;;;;;;;1.25;1.20;;;5.70;99.90;;;;;;5049237;28;20132;-75
2024/01/04 01:47:26;;;;;;;0.50;0.50;;;5.70;99.90;;;;;;5064935;28;20494;-74
2024/01/04 01:49:53;;;;;;;0.40;0.40;;;5.70;99.90;;;;;;5046897;28;20765;-75
2024/01/04 01:52:19;;;;;;;0.50;0.50;;;5.70;99.90;;;;;;5068018;28;20604;-73
2024/01/04 01:54:47;;;;;;;0.60;0.60;;;5.70;99.90;;;;;;5039632;28;20121;-74
2024/01/04 01:57:14;;;;;;;0.60;0.60;;;5.70;99.90;;;;;;5067885;28;20461;-74
2024/01/04 01:59:40;;;;;;;0.73;0.73;;;5.70;99.90;;;;;;5062588;28;20036;-75
2024/01/04 02:02:07;;;;;;;0.50;0.50;;;5.70;99.90;;;;;;5040970;28;20402;-75
2024/01/04 02:04:33;;;;;;;0.50;0.50;;;5.70;99.90;;;;;;5038680;28;20044;-75
2024/01/04 02:06:59;;;;;;;0.63;0.63;;;5.70;99.90;;;;;;5066353;28;20044;-73
2024/01/04 02:09:25;;;;;;;0.50;0.50;;;5.70;99.90;;;;;;5062478;28;20571;-73
2024/01/04 02:11:51;;;;;;;0.43;0.43;;;5.60;99.90;;;;;;5067688;28;20111;-74
2024/01/04 02:14:17;;;;;;;0.80;0.80;;;5.60;99.90;;;;;;5067803;28;20454;-74
2024/01/04 02:16:43;;;;;;;0.52;0.52;;;5.60;99.90;;;;;;5044057;28;20102;-74
2024/01/04 02:19:11;;;;;;;0.50;0.50;;;5.60;99.90;;;;;;5052043;28;20388;-74
2024/01/04 02:21:37;;;;;;;0.60;0.60;;;5.60;99.90;;;;;;5067080;28;20044;-73
2024/01/04 02:24:04;;;;;;;0.50;0.50;;;5.50;99.90;;;;;;5041418;28;20040;-73
2024/01/04 02:26:30;;;;;;;0.52;0.52;;;5.50;99.90;;;;;;5051770;28;20044;-75
2024/01/04 02:28:55;;;;;;;0.63;0.63;;;5.50;99.90;;;;;;5067995;28;20413;-73
2024/01/04 02:31:21;;;;;;;0.50;0.50;;;5.50;99.90;;;;;;5070872;28;20044;-73
2024/01/04 02:33:46;;;;;;;0.60;0.60;;;5.50;99.90;;;;;;5051225;28;20493;-73
2024/01/04 02:36:12;;;;;;;0.68;0.68;;;5.40;99.90;;;;;;5044542;28;20040;-73
2024/01/04 02:38:38;;;;;;;0.40;0.40;;;5.40;99.90;;;;;;5046616;28;20119;-73
2024/01/04 02:41:04;;;;;;;0.50;0.50;;;5.40;99.90;;;;;;5043008;28;20088;-77
2024/01/04 02:43:29;;;;;;;0.93;0.70;;;5.40;99.90;;;;;;5049932;28;20106;-73
2024/01/04 02:45:55;;;;;;;0.52;0.52;;;5.40;99.90;;;;;;5068321;28;20090;-73
2024/01/04 02:48:21;;;;;;;0.50;0.50;;;5.30;99.90;;;;;;5060611;28;20029;-74
2024/01/04 02:50:47;;;;;;;0.68;0.68;;;5.30;99.90;;;;;;5063040;28;20102;-74
2024/01/04 02:53:13;;;;;;;0.40;0.40;;;5.30;99.90;;;;;;5035856;28;20032;-74
2024/01/04 02:55:38;;;;;;;0.90;0.68;;;5.30;99.90;;;;;;5061534;28;20238;-74
2024/01/04 02:58:04;;;;;;;0.40;0.40;;;5.30;99.90;;;;;;5050433;28;20049;-74
2024/01/04 03:00:30;;;;;;;0.40;0.40;;;5.30;99.90;;;;;;5054047;28;20448;-74
2024/01/04 03:02:56;;;;;;;0.50;0.50;;;5.30;99.90;;;;;;5052229;28;20037;-74
2024/01/04 03:05:21;;;;;;;0.50;0.50;;;5.30;99.90;;;;;;5061917;28;20115;-74
2024/01/04 03:07:48;;;;;;;0.50;0.50;;;5.20;99.90;;;;;;5061008;28;20041;-74
2024/01/04 03:10:14;;;;;;;0.82;0.82;;;5.20;99.90;;;;;;5055559;28;20048;-74
2024/01/04 03:12:39;;;;;;;0.60;0.60;;;5.10;99.90;;;;;;5053785;28;20040;-73
2024/01/04 03:15:07;;;;;;;0.60;0.60;;;5.10;99.90;;;;;;5054354;28;20040;-73
2024/01/04 03:17:32;;;;;;;0.60;0.60;;;5.10;99.90;;;;;;5062011;28;20049;-76
2024/01/04 03:19:58;;;;;;;0.50;0.50;;;5.10;99.90;;;;;;5034494;28;20040;-74
2024/01/04 03:22:24;;;;;;;0.60;0.60;;;5.10;99.90;;;;;;5051093;28;20410;-74
2024/01/04 03:24:49;;;;;;;0.50;0.50;;;5.00;99.90;;;;;;5056474;28;20048;-74
2024/01/04 03:27:15;;;;;;;0.50;0.50;;;5.00;99.90;;;;;;5043445;28;20399;-74
2024/01/04 03:29:41;;;;;;;2.17;0.70;;;5.00;99.90;;;;;;5053211;28;20052;-74
2024/01/04 03:32:07;;;;;;;0.47;0.47;;;5.00;99.90;;;;;;5051842;28;20060;-74
2024/01/04 03:34:34;;;;;;;0.50;0.50;;;4.90;99.90;;;;;;5049449;28;20115;-74
2024/01/04 03:36:59;;;;;;;0.40;0.40;;;4.80;99.90;;;;;;5049227;28;20045;-74
2024/01/04 03:39:25;;;;;;;0.90;0.90;;;4.80;99.90;;;;;;5060993;28;20501;-74
2024/01/04 03:41:51;;;;;;;0.40;0.40;;;4.80;99.90;;;;;;5049589;28;20037;-74
2024/01/04 03:44:16;;;;;;;0.52;0.52;;;4.70;99.90;;;;;;5049408;28;20043;-74
2024/01/04 03:46:42;;;;;;;0.40;0.40;;;4.70;99.90;;;;;;5040730;28;20119;-74
2024/01/04 03:49:08;;;;;;;0.60;0.60;;;4.60;99.90;;;;;;5065864;28;20071;-74
2024/01/04 03:51:33;;;;;;;0.60;0.60;;;4.60;99.90;;;;;;5046017;28;20049;-74
2024/01/04 03:53:59;;;;;;;1.20;0.55;;;4.60;99.90;;;;;;5063699;28;20049;-73
2024/01/04 03:56:25;;;;;;;0.50;0.50;;;4.60;99.90;;;;;;5043266;28;20850;-73
2024/01/04 03:58:51;;;;;;;0.40;0.40;;;4.60;99.90;;;;;;5046001;28;20131;-74
2024/01/04 04:01:17;;;;;;;0.50;0.50;;;4.50;99.90;;;;;;5063417;28;20449;-74
2024/01/04 04:03:43;;;;;;;0.50;0.50;;;4.50;99.90;;;;;;5064097;28;20082;-74
2024/01/04 04:06:08;;;;;;;0.50;0.50;;;4.50;99.90;;;;;;5046255;28;20037;-74
2024/01/04 04:08:35;;;;;;;0.75;0.75;;;4.40;99.90;;;;;;5045488;28;20040;-74
2024/01/04 04:11:00;;;;;;;0.43;0.43;;;4.40;99.90;;;;;;5036285;28;20059;-74
2024/01/04 04:13:26;;;;;;;0.40;0.40;;;4.40;99.90;;;;;;5047306;28;20049;-74
2024/01/04 04:15:52;;;;;;;0.45;0.45;;;4.40;99.90;;;;;;5051250;28;20037;-73
2024/01/04 04:18:18;;;;;;;0.70;0.70;;;4.40;99.90;;;;;;5061553;28;20115;-74
2024/01/04 04:20:43;;;;;;;0.40;0.40;;;4.40;99.90;;;;;;5055368;28;20781;-73
2024/01/04 04:23:09;;;;;;;0.40;0.40;;;4.40;99.90;;;;;;5056773;28;20040;-74
2024/01/04 04:25:37;;;;;;;0.40;0.40;;;4.40;99.90;;;;;;5058903;28;20127;-74
2024/01/04 04:28:03;;;;;;;0.50;0.50;;;4.40;99.90;;;;;;5057480;28;20367;-73
2024/01/04 04:30:29;;;;;;;0.60;0.60;;;4.40;99.90;;;;;;5057036;28;20066;-73
2024/01/04 04:32:55;;;;;;;0.40;0.40;;;4.30;99.90;;;;;;5046214;28;20102;-74
2024/01/04 04:35:21;;;;;;;0.47;0.47;;;4.30;99.90;;;;;;5062998;28;20037;-74
2024/01/04 04:37:47;;;;;;;0.52;0.52;;;4.30;99.90;;;;;;5052258;28;20052;-74
2024/01/04 04:40:13;;;;;;;0.40;0.40;;;4.30;99.90;;;;;;5044670;28;20056;-74
2024/01/04 04:42:38;;;;;;;0.50;0.50;;;4.20;99.90;;;;;;5060588;28;20045;-74
2024/01/04 04:45:05;;;;;;;0.50;0.50;;;4.20;99.90;;;;;;5039686;28;20036;-74
2024/01/04 04:47:30;;;;;;;1.10;1.00;;;4.20;99.90;;;;;;5039935;28;20450;-74
2024/01/04 04:49:56;;;;;;;0.50;0.50;;;4.10;99.90;;;;;;5048297;28;20040;-74
2024/01/04 04:52:22;;;;;;;0.40;0.40;;;4.10;99.90;;;;;;5065285;28;20679;-74
2024/01/04 04:54:48;;;;;;;0.57;0.57;;;4.10;99.90;;;;;;5042697;28;20124;-74
2024/01/04 04:57:13;;;;;;;0.50;0.50;;;4.00;99.90;;;;;;5054426;28;20068;-74
2024/01/04 04:59:39;;;;;;;0.50;0.50;;;4.00;99.90;;;;;;5053382;28;20041;-74
2024/01/04 05:02:05;;;;;;;0.50;0.50;;;4.00;99.90;;;;;;5052744;28;20028;-74
2024/01/04 05:04:30;;;;;;;0.40;0.40;;;4.00;99.90;;;;;;5057698;28;20049;-74
2024/01/04 05:06:56;;;;;;;0.50;0.50;;;4.00;99.90;;;;;;5052979;28;20037;-73
2024/01/04 05:09:22;;;;;;;0.47;0.47;;;3.90;99.90;;;;;;5055114;28;20037;-74
2024/01/04 05:11:47;;;;;;;0.50;0.50;;;3.90;99.90;;;;;;5035560;28;20470;-74
2024/01/04 05:14:13;;;;;;;0.60;0.60;;;3.90;99.90;;;;;;5038983;28;20033;-74
2024/01/04 05:16:39;;;;;;;0.40;0.40;;;3.90;99.90;;;;;;5065312;28;20189;-74
2024/01/04 05:19:09;;;;;;;0.50;0.50;;;3.90;99.90;;;;;;5058168;28;20044;-73
2024/01/04 05:21:35;;;;;;;0.52;0.52;;;3.90;99.90;;;;;;5056569;28;20040;-74
2024/01/04 05:24:00;;;;;;;0.40;0.40;;;3.90;99.90;;;;;;5047361;28;20040;-74
2024/01/04 05:26:26;;;;;;;0.50;0.50;;;3.80;99.90;;;;;;5052612;28;20097;-73
2024/01/04 05:28:52;;;;;;;0.47;0.47;;;3.90;99.90;;;;;;5063976;28;20055;-74
2024/01/04 05:31:20;;;;;;;0.52;0.52;;;3.90;99.90;;;;;;5067127;28;20063;-74
2024/01/04 05:33:47;;;;;;;0.50;0.50;;;3.90;99.90;;;;;;5057412;28;20486;-73
2024/01/04 05:36:12;;;;;;;0.50;0.50;;;3.90;99.90;;;;;;5048468;28;20110;-74
2024/01/04 05:38:38;;;;;;;0.70;0.70;;;3.90;99.90;;;;;;5068216;28;20146;-74
2024/01/04 05:41:06;;;;;;;0.50;0.50;;;3.90;99.90;;;;;;5040106;28;20041;-73
2024/01/04 05:43:33;;;;;;;0.60;0.60;;;3.90;99.90;;;;;;5047002;28;20117;-73
2024/01/04 05:46:04;;;;;;;0.50;0.50;;;3.90;99.90;;;;;;5063138;28;20052;-74
2024/01/04 05:48:30;;;;;;;0.50;0.50;;;3.80;99.90;;;;;;5041998;28;20058;-74
2024/01/04 05:50:55;;;;;;;0.45;0.45;;;3.90;99.90;;;;;;5054063;28;20044;-74
2024/01/04 05:53:21;;;;;;;0.50;0.50;;;3.90;99.90;;;;;;5063181;28;20033;-73
2024/01/04 05:55:47;;;;;;;0.40;0.40;;;3.90;99.90;;;;;;5068147;28;20505;-74
2024/01/04 05:58:12;;;;;;;0.50;0.50;;;3.90;99.90;;;;;;5048706;28;20158;-74
2024/01/04 06:00:38;;;;;;;0.40;0.40;;;3.90;99.90;;;;;;5057394;28;20996;-74
2024/01/04 06:03:04;;;;;;;0.45;0.45;;;3.90;99.90;;;;;;5063029;28;20044;-74
2024/01/04 06:05:29;;;;;;;0.40;0.40;;;3.90;99.90;;;;;;5062612;28;20128;-74
2024/01/04 06:07:55;;;;;;;0.57;0.57;;;3.90;99.90;;;;;;5057652;28;20037;-74
2024/01/04 06:10:21;;;;;;;0.63;0.63;;;3.90;99.90;;;;;;5044773;28;20475;-73
2024/01/04 06:12:46;;;;;;;0.60;0.60;;;3.80;99.90;;;;;;5050741;28;20041;-74
2024/01/04 06:15:12;;;;;;;0.52;0.52;;;3.80;99.90;;;;;;5048261;28;20040;-73
2024/01/04 06:17:38;;;;;;;0.50;0.50;;;3.80;99.90;;;;;;5049760;28;20033;-74
2024/01/04 06:20:04;;;;;;;0.50;0.50;;;3.80;99.90;;;;;;5052797;28;20036;-73
2024/01/04 06:22:29;;;;;;;0.80;0.80;;;3.90;99.90;;;;;;5058362;28;20041;-73
2024/01/04 06:24:55;;;;;;;0.60;0.60;;;3.80;99.90;;;;;;5068413;28;20052;-74
2024/01/04 06:27:21;;;;;;;0.60;0.60;;;3.70;99.90;;;;;;5068243;28;20047;-74
2024/01/04 06:29:46;;;;;;;0.45;0.45;;;3.70;99.90;;;;;;5067538;28;20048;-74
2024/01/04 06:32:12;;;;;;;0.50;0.50;;;3.70;99.90;;;;;;5061790;28;20075;-73
2024/01/04 06:34:38;;;;;;;0.93;0.93;;;3.70;99.90;;;;;;5068219;28;20033;-74
2024/01/04 06:37:04;;;;;;;0.47;0.47;;;3.70;99.90;;;;;;5062491;28;20073;-74
2024/01/04 06:39:29;;;;;;;0.45;0.45;;;3.70;99.90;;;;;;5052404;28;20071;-74
2024/01/04 06:41:56;;;;;;;0.55;0.55;;;3.60;99.90;;;;;;5058022;28;20049;-73
2024/01/04 06:44:22;;;;;;;0.60;0.60;;;3.60;99.90;;;;;;5044150;28;20462;-73
2024/01/04 06:46:47;;;;;;;0.60;0.60;;;3.60;99.90;;;;;;5057556;28;20044;-73
2024/01/04 06:49:13;;;;;;;0.60;0.60;;;3.60;99.90;;;;;;5060846;28;20043;-74
2024/01/04 06:51:39;;;;;;;0.40;0.40;;;3.60;99.90;;;;;;5067113;28;20049;-73
2024/01/04 06:54:05;;;;;;;0.45;0.45;;;3.50;99.90;;;;;;5042994;28;20135;-73
2024/01/04 06:56:30;;;;;;;0.60;0.60;;;3.50;99.90;;;;;;5040263;28;20033;-73
2024/01/04 06:58:56;;;;;;;0.60;0.60;;;3.50;99.90;;;;;;5060792;28;20033;-73
2024/01/04 07:01:22;;;;;;;0.40;0.40;;;3.40;99.90;;;;;;5056242;28;20449;-73
2024/01/04 07:03:48;;;;;;;0.40;0.40;;;3.40;99.90;;;;;;5057872;28;20067;-73
2024/01/04 07:06:13;;;;;;;0.60;0.60;;;3.40;99.90;;;;;;5054928;28;20040;-74
2024/01/04 07:08:39;;;;;;;0.47;0.47;;;3.40;99.90;;;;;;5056186;28;20410;-74
2024/01/04 07:11:05;;;;;;;0.43;0.43;;;3.30;99.90;;;;;;5046593;28;20920;-74
2024/01/04 07:13:33;;;;;;;0.60;0.60;;;3.30;99.90;;;;;;5058531;28;20055;-74
2024/01/04 07:16:02;;;;;;;0.50;0.50;;;3.30;99.90;;;;;;5059873;28;20072;-75
2024/01/04 07:18:27;;;;;;;0.60;0.60;;;3.30;99.90;;;;;;5045015;28;20054;-74
2024/01/04 07:20:53;;;;;;;0.50;0.50;;;3.30;99.90;;;;;;5057441;28;20044;-74
2024/01/04 07:23:20;;;;;;;0.60;0.60;;;3.20;99.90;;;;;;5053706;28;20036;-74
2024/01/04 07:25:45;;;;;;;0.40;0.40;;;3.20;99.90;;;;;;5045019;28;20071;-73
2024/01/04 07:28:11;;;;;;;0.50;0.50;;;3.20;99.90;;;;;;5044860;28;20061;-73
2024/01/04 07:30:37;;;;;;;0.50;0.50;;;3.20;99.90;;;;;;5067335;28;20048;-73
2024/01/04 07:33:03;;;;;;;0.40;0.40;;;3.20;99.90;;;;;;5063889;28;20127;-73
2024/01/04 07:35:29;;;;;;;0.50;0.50;;;3.20;99.90;;;;;;5040222;28;20313;-73
2024/01/04 07:37:54;;;;;;;0.50;0.50;;;3.20;99.90;;;;;;5066986;28;20445;-73
2024/01/04 07:40:20;;;;;;;0.57;0.57;;;3.20;99.90;;;;;;5042105;28;20025;-73
2024/01/04 07:42:46;;;;;;;0.50;0.50;;;3.20;99.90;;;;;;5038907;28;21084;-73
2024/01/04 07:45:12;;;;;;;0.55;0.55;;;3.20;99.90;;;;;;5060080;28;20037;-76
2024/01/04 07:47:38;;;;;;;0.52;0.52;;;3.20;99.90;;;;;;5038010;28;20040;-76
2024/01/04 07:50:04;;;;;;;0.50;0.50;;;3.20;99.90;;;;;;5041806;28;20127;-73
2024/01/04 07:52:30;;;;;;;0.50;0.50;;;3.20;99.90;;;;;;5059422;28;20044;-73
2024/01/04 07:54:56;;;;;;;0.60;0.60;;;3.20;99.90;;;;;;5066124;28;20035;-72
2024/01/04 07:57:22;;;;;;;0.50;0.50;;;3.20;99.90;;;;;;5047555;28;20044;-76
2024/01/04 07:59:47;;;;;;;0.50;0.50;;;3.20;99.90;;;;;;5052085;28;20486;-73
2024/01/04 08:02:13;;;;;;;0.57;0.57;;;3.20;99.90;;;;;;5057396;28;20089;-73
2024/01/04 08:04:39;;;;;;;0.60;0.60;;;3.20;99.90;;;;;;5062034;28;20045;-73
2024/01/04 08:07:04;;;;;;;0.50;0.50;;;3.10;99.90;;;;;;5066145;28;20094;-73
2024/01/04 08:09:30;;;;;;;0.50;0.50;;;3.10;99.90;;;;;;5049489;28;20476;-73
2024/01/04 08:11:55;;;;;;;0.55;0.55;;;3.10;99.90;;;;;;5049094;28;20044;-73
2024/01/04 08:14:21;;;;;;;0.50;0.50;;;3.10;99.90;;;;;;5066188;28;20042;-73
2024/01/04 08:16:47;;;;;;;0.40;0.40;;;3.10;99.90;;;;;;5050945;28;20045;-73
2024/01/04 08:19:14;;;;;;;0.52;0.52;;;3.00;99.90;;;;;;5069441;28;20040;-75
2024/01/04 08:21:39;;;;;;;0.60;0.60;;;3.00;99.90;;;;;;5040718;28;20056;-73
2024/01/04 08:24:06;;;;;;;0.45;0.45;;;3.00;99.90;;;;;;5049745;28;20040;-73
2024/01/04 08:26:32;;;;;;;0.50;0.50;;;3.00;99.90;;;;;;5053723;28;20040;-75
2024/01/04 08:28:57;;;;;;;0.50;0.50;;;3.00;99.90;;;;;;5049051;28;20064;-77
2024/01/04 08:31:23;;;;;;;0.60;0.60;;;3.00;99.90;;;;;;5065933;28;20041;-74
2024/01/04 08:33:49;;;;;;;0.40;0.40;;;3.00;99.90;;;;;;5040331;28;20533;-73
2024/01/04 08:36:14;;;;;;;0.80;0.80;;;3.00;99.90;;;;;;5041815;28;20037;-73
2024/01/04 08:38:40;;;;;;;0.60;0.60;;;3.00;99.90;;;;;;5049208;28;20119;-73
2024/01/04 08:41:05;;;;;;;0.50;0.50;;;2.90;99.90;;;;;;5063438;28;20121;-73
2024/01/04 08:43:31;;;;;;;0.40;0.40;;;2.90;99.90;;;;;;5048248;28;20028;-75
2024/01/04 08:45:57;;;;;;;0.50;0.50;;;2.90;99.90;;;;;;5048190;28;20068;-75
2024/01/04 08:48:23;;;;;;;0.50;0.50;;;2.90;99.90;;;;;;5045894;28;20048;-75
2024/01/04 08:50:48;;;;;;;0.60;0.60;;;2.90;99.90;;;;;;5048873;28;20105;-74
2024/01/04 08:53:20;;;;;;;0.50;0.50;;;2.90;99.90;;;;;;5046630;28;20048;-74
2024/01/04 08:55:46;;;;;;;0.50;0.50;;;2.80;99.90;;;;;;5065343;28;20072;-73
2024/01/04 08:58:11;;;;;;;0.50;0.50;;;2.80;99.90;;;;;;5059638;28;20060;-74
2024/01/04 09:00:37;;;;;;;0.50;0.50;;;2.80;99.90;;;;;;5046863;28;20566;-75
2024/01/04 09:03:03;;;;;;;0.50;0.50;;;2.80;99.90;;;;;;5049149;28;20136;-74
2024/01/04 09:05:30;;;;;;;0.57;0.57;;;2.70;99.90;;;;;;5049999;28;20041;-76
2024/01/04 09:07:55;;;;;;;0.45;0.45;;;2.80;99.90;;;;;;5052520;28;20525;-74
2024/01/04 09:10:21;;;;;;;0.50;0.50;;;2.80;99.90;;;;;;5048529;28;20041;-75
2024/01/04 09:12:47;;;;;;;0.60;0.60;;;2.90;99.90;;;;;;5057914;28;20102;-74
2024/01/04 09:15:13;;;;;;;0.50;0.50;;;2.90;99.90;;;;;;5065487;28;20094;-75
2024/01/04 09:17:42;;;;;;;0.50;0.50;;;2.90;99.90;;;;;;5041856;28;20068;-74
2024/01/04 09:20:09;;;;;;;0.40;0.40;;;3.00;99.90;;;;;;5041424;28;20064;-75
2024/01/04 09:22:35;;;;;;;0.50;0.50;;;3.00;99.90;;;;;;5047097;28;20053;-75
2024/01/04 09:25:03;;;;;;;0.47;0.47;;;3.10;99.90;;;;;;5054519;28;20040;-74
2024/01/04 09:27:28;;;;;;;0.43;0.43;;;3.10;99.90;;;;;;5041944;28;20037;-74
2024/01/04 09:29:55;;;;;;;0.47;0.47;;;3.20;99.90;;;;;;5062014;28;20060;-74
2024/01/04 09:32:20;;;;;;;0.50;0.50;;;3.30;99.90;;;;;;5064783;28;20525;-74
2024/01/04 09:34:46;;;;;;;0.43;0.43;;;3.30;99.90;;;;;;5045746;28;20025;-75
2024/01/04 09:37:12;;;;;;;0.40;0.40;;;3.40;99.90;;;;;;5047323;28;20422;-75
2024/01/04 09:39:40;;;;;;;0.50;0.50;;;3.50;99.90;;;;;;5050058;28;21883;-75
2024/01/04 09:42:06;;;;;;;0.50;0.50;;;3.50;99.90;;;;;;5044552;28;20390;-75
2024/01/04 09:44:33;;;;;;;0.43;0.43;;;3.50;99.90;;;;;;5049643;28;20128;-75
2024/01/04 09:47:07;;;;;;;0.57;0.57;;;3.60;99.90;;;;;;5066348;28;20033;-74
2024/01/04 09:49:33;;;;;;;0.50;0.50;;;3.70;99.90;;;;;;5066025;28;20047;-76
2024/01/04 09:52:01;;;;;;;0.47;0.47;;;3.70;99.90;;;;;;5059824;28;20044;-75
2024/01/04 09:54:29;;;;;;;0.40;0.40;;;3.80;99.90;;;;;;5043145;28;20486;-75
2024/01/04 09:56:55;;;;;;;0.70;0.70;;;3.80;99.90;;;;;;5064204;28;20108;-75
2024/01/04 09:59:21;;;;;;;0.40;0.40;;;3.90;99.90;;;;;;5064484;28;20071;-74
2024/01/04 10:01:48;;;;;;;0.50;0.50;;;3.90;99.90;;;;;;5034649;28;20037;-75
2024/01/04 10:04:16;;;;;;;0.40;0.40;;;4.00;99.90;;;;;;5043060;28;20495;-75
2024/01/04 10:06:46;;;;;;;0.65;0.65;;;4.10;99.90;;;;;;5057851;28;20037;-74
2024/01/04 10:09:22;;;;;;;0.50;0.50;;;4.10;99.90;;;;;;5058595;28;20124;-75
2024/01/04 10:12:05;;;;;;;0.50;0.50;;;4.20;99.90;;;;;;5043120;28;20505;-74
2024/01/04 10:14:32;;;;;;;0.50;0.50;;;4.20;99.90;;;;;;5047951;28;20499;-74
2024/01/04 10:16:59;;;;;;;0.52;0.52;;;4.30;99.90;;;;;;5053282;28;20441;-73
2024/01/04 10:19:25;;;;;;;0.55;0.55;;;4.30;99.90;;;;;;5043428;28;20056;-74
2024/01/04 10:21:52;;;;;;;0.60;0.60;;;4.30;99.90;;;;;;5056952;28;20041;-73
2024/01/04 10:24:22;;;;;;;0.52;0.52;;;4.40;99.90;;;;;;5063248;28;20082;-73
2024/01/04 10:27:01;;;;;;;0.50;0.50;;;4.50;99.90;;;;;;5054847;28;20032;-73
2024/01/04 10:29:28;;;;;;;0.50;0.50;;;4.50;99.90;;;;;;5038357;28;20056;-73
2024/01/04 10:31:57;;;;;;;1.13;0.75;;;4.60;99.90;;;;;;5059521;28;20036;-73
2024/01/04 10:34:25;;;;;;;0.50;0.50;;;4.60;99.90;;;;;;5044701;28;20127;-73
2024/01/04 10:36:50;;;;;;;1.13;0.85;;;4.70;99.90;;;;;;5059229;28;20040;-73
2024/01/04 10:39:20;;;;;;;0.50;0.50;;;4.70;99.90;;;;;;5067845;28;20115;-73
2024/01/04 10:42:07;;;;;;;0.47;0.47;;;4.70;99.90;;;;;;5061203;28;20040;-73
2024/01/04 10:44:33;;;;;;;0.40;0.40;;;4.70;99.90;;;;;;5047268;28;20856;-73
2024/01/04 10:47:03;;;;;;;0.50;0.50;;;4.90;99.90;;;;;;5037806;28;20045;-73
2024/01/04 10:49:29;;;;;;;0.40;0.40;;;4.90;99.90;;;;;;5067208;28;20037;-74
2024/01/04 10:51:57;;;;;;;0.50;0.50;;;5.00;99.90;;;;;;5062660;28;20093;-73
2024/01/04 10:54:42;;;;;;;0.50;0.50;;;5.10;99.90;;;;;;5054461;28;20123;-73
2024/01/04 10:57:08;;;;;;;0.70;0.70;;;5.10;99.90;;;;;;5067457;28;20094;-73
2024/01/04 10:59:35;;;;;;;0.50;0.50;;;5.20;99.90;;;;;;5053982;28;20048;-73
2024/01/04 11:02:01;;;;;;;0.57;0.57;;;5.20;99.90;;;;;;5065294;28;20036;-73
2024/01/04 11:04:29;;;;;;;0.40;0.40;;;5.20;99.90;;;;;;5064582;28;20040;-73
2024/01/04 11:06:57;;;;;;;0.50;0.50;;;5.20;99.90;;;;;;5055585;28;20029;-73
2024/01/04 11:09:24;;;;;;;0.60;0.60;;;5.30;99.90;;;;;;5059000;28;20798;-73
2024/01/04 11:11:54;;;;;;;0.40;0.40;;;5.30;99.90;;;;;;5055675;28;20082;-73
2024/01/04 11:14:24;;;;;;;0.50;0.50;;;5.30;99.90;;;;;;5062582;28;20458;-73
2024/01/04 11:17:01;;;;;;;0.50;0.50;;;5.30;99.90;;;;;;5057540;28;20083;-73
2024/01/04 11:20:01;;;;;;;0.50;0.50;;;5.30;99.90;;;;;;5062961;28;20506;-73
2024/01/04 11:22:53;;;;;;;0.40;0.40;;;5.30;99.90;;;;;;5061665;28;20044;-74
2024/01/04 11:25:56;;;;;;;0.40;0.40;;;5.40;99.90;;;;;;5054947;28;20040;-73
2024/01/04 11:28:23;;;;;;;0.50;0.50;;;5.50;99.90;;;;;;5052974;28;20068;-73
2024/01/04 11:30:53;;;;;;;0.35;0.35;;;5.40;99.90;;;;;;5062483;28;20056;-73
2024/01/04 11:33:21;;;;;;;0.70;0.70;;;5.40;99.90;;;;;;5059998;28;20047;-73
2024/01/04 11:35:49;;;;;;;0.60;0.60;;;5.40;99.90;;;;;;5049071;28;20142;-73
2024/01/04 11:38:23;;;;;;;0.50;0.50;;;5.40;99.90;;;;;;5049413;28;20379;-73
2024/01/04 11:40:50;;;;;;;0.50;0.50;;;5.40;99.90;;;;;;5040229;28;20037;-73
2024/01/04 11:43:16;;;;;;;0.43;0.43;;;5.50;99.90;;;;;;5061962;28;20032;-73
2024/01/04 11:45:46;;;;;;;0.50;0.50;;;5.40;99.90;;;;;;5060356;28;20036;-73
2024/01/04 11:48:12;;;;;;;0.50;0.50;;;5.40;99.90;;;;;;5059041;28;20041;-73
2024/01/04 11:50:49;;;;;;;0.52;0.52;;;5.40;99.90;;;;;;5061063;28;20040;-73
2024/01/04 11:53:17;;;;;;;0.50;0.50;;;5.40;99.90;;;;;;5066431;28;20048;-73
2024/01/04 11:55:43;;;;;;;0.50;0.50;;;5.40;99.90;;;;;;5045165;28;20037;-73
2024/01/04 11:58:11;;;;;;;0.50;0.50;;;5.40;99.90;;;;;;5057597;28;20278;-73
2024/01/04 12:00:39;;;;;;;0.60;0.60;;;5.40;99.90;;;;;;5054994;28;20033;-73
2024/01/04 12:03:13;;;;;;;0.73;0.73;;;5.30;99.90;;;;;;5062374;28;20037;-73
2024/01/04 12:05:45;;;;;;;0.65;0.65;;;5.30;99.90;;;;;;5037609;28;20041;-73
2024/01/04 12:08:28;;;;;;;0.60;0.60;;;5.30;99.90;;;;;;5047857;28;20037;-72
2024/01/04 12:10:56;;;;;;;0.60;0.60;;;5.40;99.90;;;;;;5056092;28;20049;-74
2024/01/04 12:13:22;;;;;;;0.55;0.55;;;5.30;99.90;;;;;;5054085;28;20444;-73
2024/01/04 12:15:49;;;;;;;0.50;0.50;;;5.40;99.90;;;;;;5071551;28;20056;-74
2024/01/04 12:18:16;;;;;;;1.15;1.15;;;5.40;99.90;;;;;;5041310;28;20040;-73
2024/01/04 12:20:45;;;;;;;0.50;0.50;;;5.50;99.90;;;;;;5046017;28;20510;-74
2024/01/04 12:23:12;;;;;;;0.50;0.50;;;5.50;99.90;;;;;;5056450;28;20033;-74
2024/01/04 12:25:39;;;;;;;0.60;0.60;;;5.60;99.90;;;;;;5053601;28;20585;-74
2024/01/04 12:28:09;;;;;;;0.73;0.73;;;5.50;99.90;;;;;;5063366;28;20667;-74
2024/01/04 12:30:38;;;;;;;0.40;0.40;;;5.50;99.90;;;;;;5036764;28;20499;-73
2024/01/04 12:33:04;;;;;;;1.65;1.13;;;5.50;99.90;;;;;;5057912;28;20036;-75
2024/01/04 12:35:30;;;;;;;0.40;0.40;;;5.50;99.90;;;;;;5049213;28;20118;-76
2024/01/04 12:38:03;;;;;;;0.47;0.47;;;5.40;99.90;;;;;;5062700;28;20040;-74
2024/01/04 12:40:40;;;;;;;0.52;0.52;;;5.50;99.90;;;;;;5037960;28;20051;-74
2024/01/04 12:43:13;;;;;;;0.60;0.60;;;5.50;99.90;;;;;;5046362;28;20454;-74
2024/01/04 12:45:39;;;;;;;0.50;0.50;;;5.50;99.90;;;;;;5050675;28;20198;-73
2024/01/04 12:48:07;;;;;;;0.50;0.50;;;5.50;99.90;;;;;;5055049;28;20044;-73
2024/01/04 12:50:34;;;;;;;0.40;0.40;;;5.50;99.90;;;;;;5060622;28;20072;-74
2024/01/04 12:53:01;;;;;;;0.60;0.60;;;5.50;99.90;;;;;;5053625;28;20092;-73
2024/01/04 12:55:27;;;;;;;0.50;0.50;;;5.50;99.90;;;;;;5038631;28;21817;-73